Time;durP1;ratioP1;P1;durP2;ratioP2;P2;SDS_P1;SDS_P2;PMS_P1;PMS_P2;Temp;Humidity;BMP_temperature;BMP_pressure;BME280_temperature;BME280_humidity;BME280_pressure;Samples;Min_cycle;Max_cycle;Signal;HPM_P1;HPM_P2
2022/11/08 00:01:33;;;;;;;9.40;3.37;;;11.30;1.00;;;;;;5051496;28;20785;-75
2022/11/08 00:04:11;;;;;;;5.13;3.13;;;11.30;1.00;;;;;;5049808;28;20439;-76
2022/11/08 00:14:51;;;;;;;6.00;2.83;;;11.30;1.00;;;;;;5048565;28;20492;-76
2022/11/08 00:17:18;;;;;;;6.03;3.30;;;11.40;1.00;;;;;;5049253;28;20417;-76
2022/11/08 00:19:44;;;;;;;4.53;3.50;;;11.40;1.00;;;;;;5050539;28;20411;-76
2022/11/08 00:22:11;;;;;;;5.43;3.17;;;11.30;1.00;;;;;;5050917;28;20407;-76
2022/11/08 00:24:37;;;;;;;4.07;2.90;;;11.20;1.00;;;;;;5050845;28;20779;-76
2022/11/08 00:27:04;;;;;;;3.83;2.80;;;11.20;1.00;;;;;;5051197;28;20411;-76
2022/11/08 00:29:29;;;;;;;6.47;3.20;;;11.20;1.00;;;;;;5050936;28;20587;-76
2022/11/08 00:31:55;;;;;;;3.47;2.67;;;11.20;1.00;;;;;;5050750;28;20482;-76
2022/11/08 00:34:21;;;;;;;4.47;2.60;;;11.20;1.00;;;;;;5050432;28;20679;-76
2022/11/08 00:36:46;;;;;;;7.40;3.17;;;11.20;1.00;;;;;;5050967;28;20166;-75
2022/11/08 00:39:12;;;;;;;7.00;2.70;;;11.20;1.00;;;;;;5050704;28;20643;-76
2022/11/08 00:41:37;;;;;;;5.07;3.00;;;11.20;1.00;;;;;;5051026;28;20180;-76
2022/11/08 00:44:03;;;;;;;5.43;3.00;;;11.20;1.00;;;;;;5050968;28;20821;-76
2022/11/08 00:46:28;;;;;;;3.63;2.73;;;11.20;1.00;;;;;;5048558;28;20181;-75
2022/11/08 00:48:54;;;;;;;6.43;3.80;;;11.20;1.00;;;;;;5049704;28;20254;-76
2022/11/08 00:51:19;;;;;;;7.30;2.83;;;11.20;1.00;;;;;;5050898;28;20671;-75
2022/11/08 00:53:45;;;;;;;10.00;3.17;;;11.20;1.00;;;;;;5050591;28;20185;-76
2022/11/08 00:56:12;;;;;;;5.53;2.50;;;11.10;1.00;;;;;;5050584;28;20177;-76
2022/11/08 00:58:38;;;;;;;4.67;3.30;;;11.10;1.00;;;;;;5050958;28;20177;-76
2022/11/08 01:01:16;;;;;;;5.57;3.27;;;11.10;1.00;;;;;;5050197;28;20408;-76
2022/11/08 01:03:41;;;;;;;7.77;3.30;;;11.00;1.00;;;;;;5050152;28;20430;-76
2022/11/08 01:06:08;;;;;;;6.83;2.90;;;11.00;1.00;;;;;;5048356;28;20428;-75
2022/11/08 01:08:34;;;;;;;5.93;3.43;;;11.00;1.00;;;;;;5046968;28;20197;-75
2022/11/08 01:11:06;;;;;;;4.80;2.87;;;11.00;1.00;;;;;;5049839;28;20473;-75
2022/11/08 01:13:33;;;;;;;5.73;3.27;;;11.00;1.00;;;;;;5050369;28;20707;-76
2022/11/08 01:16:05;;;;;;;7.67;3.27;;;11.00;1.00;;;;;;5050344;28;20408;-76
2022/11/08 01:18:30;;;;;;;9.30;3.80;;;10.90;1.00;;;;;;5050150;28;20458;-76
2022/11/08 01:20:56;;;;;;;9.93;3.13;;;10.80;1.00;;;;;;5050099;28;20927;-76
2022/11/08 01:23:21;;;;;;;8.23;2.70;;;10.70;1.00;;;;;;5050271;28;20262;-76
2022/11/08 01:25:48;;;;;;;3.83;2.97;;;10.60;1.00;;;;;;5050288;28;20674;-77
2022/11/08 01:28:15;;;;;;;5.20;2.83;;;10.50;1.00;;;;;;5050054;28;20269;-77
2022/11/08 01:30:42;;;;;;;5.37;3.43;;;10.30;1.00;;;;;;5050299;28;20771;-76
2022/11/08 01:33:08;;;;;;;5.43;2.90;;;10.20;1.00;;;;;;5049351;28;20454;-76
2022/11/08 01:35:34;;;;;;;4.90;3.33;;;10.10;1.00;;;;;;5049691;28;20906;-76
2022/11/08 01:38:01;;;;;;;4.37;3.00;;;10.00;1.00;;;;;;5050406;28;20251;-76
2022/11/08 01:40:28;;;;;;;6.40;3.17;;;9.90;1.00;;;;;;5050478;28;20400;-75
2022/11/08 01:42:54;;;;;;;9.67;3.50;;;9.80;1.00;;;;;;5049825;28;20799;-76
2022/11/08 01:46:07;;;;;;;4.93;3.00;;;9.90;1.00;;;;;;5050249;28;20410;-75
2022/11/08 01:48:32;;;;;;;8.03;2.90;;;10.00;1.00;;;;;;5047476;28;20303;-76
2022/11/08 01:50:59;;;;;;;6.40;3.17;;;10.10;1.00;;;;;;5049954;28;20498;-76
2022/11/08 01:53:26;;;;;;;7.13;2.97;;;10.20;1.00;;;;;;5049778;28;20235;-77
2022/11/08 01:55:52;;;;;;;10.17;3.10;;;10.30;1.00;;;;;;5050123;28;20499;-77
2022/11/08 01:58:22;;;;;;;4.87;3.00;;;10.40;1.00;;;;;;5048645;28;20412;-75
2022/11/08 02:00:49;;;;;;;8.50;3.07;;;10.40;1.00;;;;;;5050396;28;20430;-76
2022/11/08 02:03:17;;;;;;;7.67;2.70;;;10.50;1.00;;;;;;5049208;28;20427;-76
2022/11/08 02:05:43;;;;;;;7.73;3.30;;;10.40;1.00;;;;;;5050208;28;20525;-77
2022/11/08 02:08:18;;;;;;;8.47;3.43;;;10.40;1.00;;;;;;5049647;28;20455;-75
2022/11/08 02:10:48;;;;;;;7.03;2.80;;;10.30;1.00;;;;;;5050172;28;20870;-76
2022/11/08 02:13:18;;;;;;;7.30;2.97;;;10.20;1.00;;;;;;5052055;28;20426;-76
2022/11/08 02:15:44;;;;;;;4.10;2.90;;;10.20;1.00;;;;;;5050033;28;20426;-75
2022/11/08 02:18:11;;;;;;;9.83;3.00;;;10.20;1.00;;;;;;5052793;28;20423;-76
2022/11/08 02:20:40;;;;;;;7.00;3.27;;;10.30;1.00;;;;;;5053180;28;20411;-76
2022/11/08 02:23:14;;;;;;;6.10;3.17;;;10.30;1.00;;;;;;5053284;28;20855;-76
2022/11/08 02:25:40;;;;;;;9.07;3.63;;;10.30;1.00;;;;;;5053629;28;20407;-76
2022/11/08 02:28:05;;;;;;;5.47;3.00;;;10.30;1.00;;;;;;5039083;28;20958;-76
2022/11/08 02:30:33;;;;;;;4.40;3.20;;;10.30;1.00;;;;;;5033471;28;20679;-76
2022/11/08 02:32:58;;;;;;;11.27;3.50;;;10.20;1.00;;;;;;5032689;28;20264;-77
2022/11/08 02:35:26;;;;;;;4.80;3.17;;;10.20;1.00;;;;;;5033091;28;20765;-77
2022/11/08 02:37:52;;;;;;;7.97;3.17;;;10.10;1.00;;;;;;5033212;28;20257;-75
2022/11/08 02:40:17;;;;;;;7.30;3.43;;;10.00;1.00;;;;;;5033181;28;20975;-76
2022/11/08 02:42:43;;;;;;;10.60;3.07;;;9.90;1.00;;;;;;5032848;28;20194;-76
2022/11/08 02:45:09;;;;;;;4.37;2.53;;;9.80;1.00;;;;;;5033151;28;20180;-75
2022/11/08 02:47:34;;;;;;;8.07;3.30;;;9.70;1.00;;;;;;5048373;28;20197;-76
2022/11/08 02:50:00;;;;;;;7.13;3.20;;;9.70;1.00;;;;;;5044389;28;20196;-76
2022/11/08 02:52:26;;;;;;;5.03;3.67;;;9.50;1.00;;;;;;5051181;28;20172;-76
2022/11/08 02:54:51;;;;;;;7.40;3.10;;;9.50;1.00;;;;;;5051725;28;20169;-75
2022/11/08 02:57:17;;;;;;;6.37;3.27;;;9.40;1.00;;;;;;5052760;28;20547;-76
2022/11/08 02:59:42;;;;;;;5.23;2.90;;;9.40;1.00;;;;;;5052823;28;20188;-76
2022/11/08 03:02:08;;;;;;;8.00;3.17;;;9.40;1.00;;;;;;5052606;28;20177;-75
2022/11/08 03:04:33;;;;;;;6.23;2.87;;;9.30;1.00;;;;;;5052543;28;20200;-76
2022/11/08 03:06:59;;;;;;;4.63;2.80;;;9.30;1.40;;;;;;5052453;28;20169;-75
2022/11/08 03:09:26;;;;;;;4.90;3.20;;;9.40;1.00;;;;;;5052430;28;20205;-76
2022/11/08 03:11:52;;;;;;;4.50;2.90;;;9.40;1.00;;;;;;5052129;28;20173;-76
2022/11/08 03:14:17;;;;;;;7.13;3.70;;;9.50;1.00;;;;;;5052427;28;21027;-75
2022/11/08 03:16:43;;;;;;;6.60;3.37;;;9.50;1.00;;;;;;5052425;28;20201;-76
2022/11/08 03:19:10;;;;;;;8.33;3.30;;;9.60;1.00;;;;;;5051511;28;20556;-76
2022/11/08 03:21:36;;;;;;;5.23;2.90;;;9.80;1.00;;;;;;5052007;28;20231;-77
2022/11/08 03:24:03;;;;;;;6.10;3.33;;;10.00;1.00;;;;;;5051920;28;20439;-75
2022/11/08 03:26:29;;;;;;;6.60;3.30;;;10.10;1.00;;;;;;5052223;28;20184;-76
2022/11/08 03:28:55;;;;;;;6.73;3.17;;;10.30;1.00;;;;;;5053237;28;20509;-77
2022/11/08 03:31:20;;;;;;;3.60;3.00;;;10.30;1.00;;;;;;5051906;28;20407;-76
2022/11/08 03:33:46;;;;;;;3.60;2.90;;;10.20;1.00;;;;;;5051063;28;20205;-77
2022/11/08 03:36:11;;;;;;;4.20;3.00;;;10.10;1.00;;;;;;5051320;28;20709;-75
2022/11/08 03:38:37;;;;;;;4.50;2.90;;;10.10;1.00;;;;;;5051675;28;20635;-76
2022/11/08 03:41:03;;;;;;;6.57;2.70;;;10.20;1.00;;;;;;5051862;28;20547;-76
2022/11/08 03:43:28;;;;;;;3.80;2.50;;;10.20;1.00;;;;;;5051819;28;20197;-76
2022/11/08 03:45:54;;;;;;;5.37;3.10;;;10.20;1.00;;;;;;5051815;28;20169;-76
2022/11/08 03:48:19;;;;;;;6.07;2.93;;;10.30;1.00;;;;;;5050899;28;20579;-76
2022/11/08 03:50:45;;;;;;;3.43;2.60;;;10.40;1.00;;;;;;5051714;28;20172;-76
2022/11/08 03:53:10;;;;;;;3.67;2.57;;;10.60;1.00;;;;;;5051353;28;20231;-75
2022/11/08 03:55:36;;;;;;;3.07;2.63;;;10.60;1.00;;;;;;5051967;28;20169;-76
2022/11/08 03:58:01;;;;;;;4.73;3.10;;;10.70;1.00;;;;;;5051473;28;20161;-76
2022/11/08 04:00:28;;;;;;;4.10;2.57;;;10.80;1.00;;;;;;5051554;28;20169;-77
2022/11/08 04:02:58;;;;;;;4.00;3.10;;;10.80;1.00;;;;;;5050646;28;20197;-76
2022/11/08 04:05:24;;;;;;;9.77;3.20;;;10.80;1.00;;;;;;5051544;28;20447;-76
2022/11/08 04:07:49;;;;;;;3.70;2.67;;;10.80;1.00;;;;;;5051544;28;20439;-75
2022/11/08 04:10:16;;;;;;;3.50;2.70;;;10.90;1.00;;;;;;5051520;28;20281;-75
2022/11/08 04:15:28;;;;;;;3.20;2.60;;;10.80;1.00;;;;;;5047996;28;20414;-76
2022/11/08 04:23:26;;;;;;;3.97;2.37;;;10.90;1.00;;;;;;5052529;28;20453;-75
2022/11/08 04:25:57;;;;;;;4.60;2.70;;;10.90;1.00;;;;;;5051068;28;20477;-76
2022/11/08 04:28:28;;;;;;;3.80;2.50;;;11.00;1.00;;;;;;5050975;28;20477;-76
2022/11/08 04:30:55;;;;;;;6.10;3.37;;;11.00;1.00;;;;;;5050841;28;20439;-75
2022/11/08 04:33:21;;;;;;;4.03;2.73;;;11.00;1.00;;;;;;5050769;28;20423;-75
2022/11/08 04:35:47;;;;;;;5.20;3.00;;;11.00;1.00;;;;;;5050582;28;20818;-75
2022/11/08 04:38:13;;;;;;;4.47;2.80;;;11.00;1.00;;;;;;5050531;28;20457;-76
2022/11/08 04:40:38;;;;;;;7.97;3.90;;;11.00;1.00;;;;;;5051037;28;20404;-76
2022/11/08 04:43:04;;;;;;;4.37;3.60;;;10.90;1.00;;;;;;5050506;28;20189;-76
2022/11/08 04:45:29;;;;;;;4.87;2.80;;;10.90;1.00;;;;;;5049589;28;20169;-76
2022/11/08 04:47:54;;;;;;;4.30;2.87;;;10.80;1.00;;;;;;5049108;28;20193;-77
2022/11/08 04:50:20;;;;;;;8.20;4.30;;;10.80;1.00;;;;;;5050578;28;20235;-76
2022/11/08 04:52:53;;;;;;;10.17;4.70;;;10.80;1.00;;;;;;5048997;28;20231;-76
2022/11/08 04:55:22;;;;;;;7.43;4.60;;;10.80;1.00;;;;;;5050610;28;20177;-76
2022/11/08 04:57:48;;;;;;;5.67;3.87;;;10.70;1.00;;;;;;5050708;28;20412;-76
2022/11/08 05:00:15;;;;;;;7.73;4.43;;;10.70;1.00;;;;;;5050674;28;20415;-76
2022/11/08 05:02:41;;;;;;;6.37;3.80;;;10.60;1.00;;;;;;5049962;28;20424;-76
2022/11/08 05:05:07;;;;;;;6.07;4.40;;;10.60;1.00;;;;;;5050561;28;20815;-76
2022/11/08 05:07:33;;;;;;;4.60;3.33;;;10.60;1.00;;;;;;5050642;28;20228;-77
2022/11/08 05:09:58;;;;;;;6.30;4.53;;;10.60;1.00;;;;;;5050614;28;20860;-76
2022/11/08 05:12:24;;;;;;;3.60;3.20;;;10.50;1.00;;;;;;5050241;28;20177;-75
2022/11/08 05:14:49;;;;;;;5.87;3.30;;;10.50;1.00;;;;;;5050856;28;20287;-76
2022/11/08 05:17:15;;;;;;;9.27;3.27;;;10.60;1.00;;;;;;5050422;28;20161;-77
2022/11/08 05:25:09;;;;;;;4.43;3.17;;;10.40;1.00;;;;;;5050454;28;20430;-76
2022/11/08 05:27:35;;;;;;;5.50;3.60;;;10.40;1.00;;;;;;5050212;28;20910;-76
2022/11/08 05:30:01;;;;;;;6.97;3.90;;;10.30;1.00;;;;;;5050426;28;20608;-76
2022/11/08 05:32:26;;;;;;;5.30;3.80;;;10.30;1.00;;;;;;5049340;28;20631;-76
2022/11/08 05:34:52;;;;;;;5.23;3.50;;;10.20;1.00;;;;;;5048419;28;20182;-77
2022/11/08 05:37:17;;;;;;;5.57;3.57;;;10.20;1.00;;;;;;5050060;28;20169;-75
2022/11/08 05:39:43;;;;;;;4.70;3.33;;;10.20;1.00;;;;;;5050292;28;20172;-76
2022/11/08 05:42:08;;;;;;;3.87;3.13;;;10.10;1.00;;;;;;5050217;28;20540;-76
2022/11/08 05:44:34;;;;;;;5.50;3.20;;;10.10;1.00;;;;;;5050618;28;20250;-76
2022/11/08 05:46:59;;;;;;;4.53;3.10;;;10.20;1.00;;;;;;5050436;28;20173;-75
2022/11/08 05:49:25;;;;;;;5.90;2.90;;;10.10;1.00;;;;;;5053364;28;20209;-77
2022/11/08 05:51:50;;;;;;;4.30;3.30;;;10.20;1.00;;;;;;5053692;28;20169;-76
2022/11/08 05:54:16;;;;;;;5.60;3.30;;;10.20;1.00;;;;;;5053735;28;20193;-75
2022/11/08 05:56:42;;;;;;;5.10;3.60;;;10.10;1.00;;;;;;5053840;28;20179;-76
2022/11/08 05:59:07;;;;;;;5.93;3.43;;;10.10;1.00;;;;;;5053883;28;20512;-77
2022/11/08 06:01:33;;;;;;;5.70;3.20;;;10.10;1.00;;;;;;5053225;28;20671;-76
2022/11/08 06:03:58;;;;;;;4.83;3.50;;;10.10;1.00;;;;;;5053559;28;20197;-76
2022/11/08 06:06:24;;;;;;;4.23;3.27;;;10.10;1.00;;;;;;5054028;28;20254;-76
2022/11/08 06:08:50;;;;;;;4.83;3.37;;;10.00;1.00;;;;;;5053673;28;20251;-76
2022/11/08 06:11:20;;;;;;;5.90;4.03;;;10.00;1.00;;;;;;5053444;28;20162;-76
2022/11/08 06:13:46;;;;;;;4.70;3.30;;;10.00;1.00;;;;;;5053707;28;20190;-76
2022/11/08 06:16:13;;;;;;;4.83;3.53;;;10.00;1.00;;;;;;5050232;28;20469;-76
2022/11/08 06:18:39;;;;;;;8.00;4.40;;;9.90;1.00;;;;;;5053002;28;20170;-76
2022/11/08 06:21:07;;;;;;;8.30;4.90;;;9.90;1.00;;;;;;5053304;28;20422;-76
2022/11/08 06:23:33;;;;;;;8.47;4.50;;;9.90;1.00;;;;;;5053525;28;20490;-77
2022/11/08 06:25:59;;;;;;;5.63;3.63;;;9.90;1.00;;;;;;5052369;28;20562;-76
2022/11/08 06:28:26;;;;;;;5.27;3.13;;;9.90;1.00;;;;;;5053558;28;20305;-77
2022/11/08 06:30:51;;;;;;;5.93;3.40;;;9.90;1.00;;;;;;5039358;28;20907;-77
2022/11/08 06:33:18;;;;;;;8.43;5.10;;;10.00;1.00;;;;;;5034178;28;20431;-76
2022/11/08 06:35:44;;;;;;;6.97;4.40;;;10.00;1.00;;;;;;5033355;28;20540;-77
2022/11/08 06:38:09;;;;;;;5.00;3.30;;;10.10;1.00;;;;;;5033189;28;20401;-76
2022/11/08 06:40:38;;;;;;;5.30;3.20;;;10.20;1.00;;;;;;5033496;28;20721;-77
2022/11/08 06:43:04;;;;;;;5.43;3.07;;;10.30;1.00;;;;;;5032498;28;20217;-76
2022/11/08 06:45:30;;;;;;;4.30;3.00;;;10.30;1.00;;;;;;5032935;28;20455;-77
2022/11/08 06:48:00;;;;;;;9.87;3.47;;;10.40;1.00;;;;;;5051407;28;20617;-77
2022/11/08 06:50:27;;;;;;;4.73;2.97;;;10.40;1.00;;;;;;5053317;28;20201;-76
2022/11/08 06:53:07;;;;;;;3.40;2.70;;;10.20;1.00;;;;;;5052755;28;20424;-77
2022/11/08 06:55:34;;;;;;;4.50;3.33;;;10.60;1.00;;;;;;5052750;28;20462;-76
2022/11/08 06:58:00;;;;;;;7.60;3.23;;;10.60;1.00;;;;;;5052047;28;20894;-76
2022/11/08 07:00:26;;;;;;;4.77;3.40;;;10.60;1.00;;;;;;5052811;28;20755;-76
2022/11/08 07:02:55;;;;;;;6.00;3.50;;;10.70;1.00;;;;;;5052007;28;20934;-76
2022/11/08 07:05:22;;;;;;;7.90;3.47;;;10.80;1.00;;;;;;5052624;28;20839;-75
2022/11/08 07:07:51;;;;;;;6.10;3.27;;;10.80;1.00;;;;;;5052586;28;20420;-77
2022/11/08 07:10:22;;;;;;;5.03;2.93;;;10.90;1.00;;;;;;5052174;28;20521;-76
2022/11/08 07:12:49;;;;;;;4.03;2.70;;;11.00;1.00;;;;;;5052294;28;20453;-76
2022/11/08 07:15:15;;;;;;;5.20;2.87;;;11.10;1.00;;;;;;5052418;28;20901;-77
2022/11/08 07:17:41;;;;;;;6.30;2.70;;;11.20;1.00;;;;;;5052034;28;20423;-76
2022/11/08 07:20:07;;;;;;;5.87;3.00;;;11.30;1.00;;;;;;5052111;28;20239;-77
2022/11/08 07:22:33;;;;;;;4.43;3.17;;;11.50;1.00;;;;;;5051784;28;20165;-77
2022/11/08 07:24:58;;;;;;;4.87;3.10;;;11.60;1.00;;;;;;5052170;28;20437;-77
2022/11/08 07:27:24;;;;;;;4.33;3.07;;;11.60;1.00;;;;;;5052024;28;20180;-77
2022/11/08 07:29:49;;;;;;;4.60;2.70;;;11.70;1.00;;;;;;5052135;28;20602;-77
2022/11/08 07:32:15;;;;;;;3.87;2.73;;;11.80;1.00;;;;;;5052017;28;20173;-77
2022/11/08 07:34:40;;;;;;;5.00;2.60;;;11.80;1.00;;;;;;5051207;28;20204;-77
2022/11/08 07:37:06;;;;;;;4.33;2.70;;;11.90;1.00;;;;;;5051709;28;20223;-77
2022/11/08 07:39:31;;;;;;;5.17;2.73;;;12.00;1.00;;;;;;5051708;28;20192;-77
2022/11/08 07:41:57;;;;;;;4.37;2.73;;;12.00;1.00;;;;;;5051767;28;20200;-76
2022/11/08 07:44:22;;;;;;;3.20;2.53;;;12.00;1.00;;;;;;5051716;28;20706;-76
2022/11/08 07:46:48;;;;;;;4.50;3.40;;;12.10;1.00;;;;;;5051856;28;20252;-75
2022/11/08 07:49:13;;;;;;;3.53;2.50;;;12.10;1.00;;;;;;5051041;28;20238;-76
2022/11/08 07:51:39;;;;;;;3.70;2.70;;;12.10;1.00;;;;;;5051332;28;20652;-76
2022/11/08 07:54:04;;;;;;;3.80;2.40;;;12.10;1.00;;;;;;5051194;28;20197;-75
2022/11/08 07:56:30;;;;;;;6.00;2.50;;;12.20;1.00;;;;;;5051582;28;20276;-76
2022/11/08 07:58:55;;;;;;;3.17;2.50;;;12.10;1.00;;;;;;5051572;28;20219;-76
2022/11/08 08:01:21;;;;;;;4.40;2.40;;;12.10;1.00;;;;;;5051231;28;20179;-76
2022/11/08 08:03:46;;;;;;;5.60;2.53;;;12.10;1.00;;;;;;5051473;28;20188;-76
2022/11/08 08:06:12;;;;;;;3.00;2.70;;;12.20;1.00;;;;;;5051443;28;20188;-76
2022/11/08 08:08:37;;;;;;;7.70;2.57;;;12.20;1.00;;;;;;5050932;28;20193;-76
2022/11/08 08:11:04;;;;;;;4.30;2.57;;;12.30;1.00;;;;;;5050262;28;20661;-76
2022/11/08 08:13:29;;;;;;;4.87;2.53;;;12.40;1.00;;;;;;5051188;28;20182;-76
2022/11/08 08:15:59;;;;;;;3.80;2.73;;;12.30;1.00;;;;;;5047862;28;20420;-76
2022/11/08 08:18:25;;;;;;;4.77;2.77;;;12.40;1.00;;;;;;5050471;28;20677;-76
2022/11/08 08:20:51;;;;;;;5.40;2.70;;;12.40;1.00;;;;;;5050947;28;20921;-76
2022/11/08 08:23:16;;;;;;;4.30;2.80;;;12.40;1.00;;;;;;5050670;28;20424;-76
2022/11/08 08:25:42;;;;;;;5.00;2.67;;;12.50;1.00;;;;;;5049872;28;20211;-76
2022/11/08 08:28:08;;;;;;;6.10;2.70;;;12.50;1.00;;;;;;5035208;28;20256;-76
2022/11/08 08:30:35;;;;;;;4.37;3.10;;;12.60;1.00;;;;;;5031240;28;20213;-76
2022/11/08 08:33:06;;;;;;;8.63;2.60;;;12.70;1.00;;;;;;5030247;28;20459;-76
2022/11/08 08:35:33;;;;;;;6.03;2.70;;;12.80;1.00;;;;;;5031025;28;20738;-76
2022/11/08 08:38:00;;;;;;;6.70;3.00;;;13.00;1.00;;;;;;5030577;28;20784;-76
2022/11/08 08:40:26;;;;;;;38.13;5.10;;;13.10;1.00;;;;;;5029743;28;20417;-76
2022/11/08 08:42:51;;;;;;;9.23;3.03;;;13.20;1.00;;;;;;5030470;28;20428;-76
2022/11/08 08:45:17;;;;;;;4.37;2.70;;;13.30;1.00;;;;;;5031014;28;20432;-76
2022/11/08 08:47:42;;;;;;;5.00;2.40;;;13.50;1.00;;;;;;5047117;28;20201;-76
2022/11/08 08:50:08;;;;;;;5.43;2.47;;;13.60;1.00;;;;;;5050598;28;20238;-76
2022/11/08 08:52:34;;;;;;;3.50;2.50;;;13.70;1.00;;;;;;5050069;28;20577;-76
2022/11/08 08:54:59;;;;;;;73.70;11.43;;;13.60;1.00;;;;;;5050623;28;20400;-76
2022/11/08 08:57:25;;;;;;;4.30;2.50;;;13.80;1.00;;;;;;5050573;28;20176;-76
2022/11/08 08:59:50;;;;;;;2.80;2.27;;;13.70;1.00;;;;;;5050732;28;20205;-76
2022/11/08 09:02:16;;;;;;;4.17;2.57;;;13.80;1.00;;;;;;5040067;28;20670;-76
2022/11/08 09:04:42;;;;;;;3.73;2.40;;;14.80;1.00;;;;;;5033173;28;20706;-78
2022/11/08 09:07:07;;;;;;;6.00;2.97;;;17.00;1.00;;;;;;5028377;28;20759;-76
2022/11/08 09:09:33;;;;;;;3.93;2.50;;;19.10;1.00;;;;;;5043188;28;20211;-75
2022/11/08 09:11:59;;;;;;;6.50;3.50;;;20.90;1.00;;;;;;5042033;28;20312;-76
2022/11/08 09:14:25;;;;;;;4.57;2.83;;;21.90;1.00;;;;;;5035064;28;20648;-75
2022/11/08 09:16:50;;;;;;;6.20;3.20;;;23.60;1.00;;;;;;5037900;28;20430;-76
2022/11/08 09:19:16;;;;;;;4.40;3.10;;;24.50;1.00;;;;;;5043079;28;20222;-76
2022/11/08 09:21:41;;;;;;;4.93;3.00;;;24.80;1.00;;;;;;5047605;28;20693;-77
2022/11/08 09:24:07;;;;;;;5.30;2.93;;;25.40;1.00;;;;;;5041771;28;20203;-75
2022/11/08 09:26:32;;;;;;;7.93;3.07;;;25.20;1.00;;;;;;5053904;28;20200;-75
2022/11/08 09:29:00;;;;;;;6.50;3.07;;;25.30;1.00;;;;;;5046514;28;20223;-77
2022/11/08 09:31:25;;;;;;;5.57;3.03;;;25.80;1.00;;;;;;5054647;28;20176;-76
2022/11/08 09:33:51;;;;;;;5.37;2.80;;;26.00;1.00;;;;;;5049285;28;20450;-76
2022/11/08 09:36:16;;;;;;;3.83;2.60;;;25.00;1.00;;;;;;5047682;28;20176;-76
2022/11/08 09:38:42;;;;;;;4.67;3.00;;;24.50;1.00;;;;;;5045135;28;22105;-76
2022/11/08 09:41:35;;;;;;;5.50;2.80;;;25.00;1.00;;;;;;5048699;28;20173;-77
2022/11/08 09:44:20;;;;;;;4.10;2.43;;;25.70;1.00;;;;;;5053138;28;20263;-77
2022/11/08 09:46:57;;;;;;;4.60;2.43;;;26.00;1.00;;;;;;5051632;28;20810;-77
2022/11/08 09:49:34;;;;;;;5.90;2.90;;;25.30;1.00;;;;;;5041406;28;20889;-78
2022/11/08 09:52:03;;;;;;;4.50;3.00;;;24.40;1.00;;;;;;5046188;28;20469;-76
2022/11/08 09:54:35;;;;;;;8.57;3.07;;;24.40;1.00;;;;;;5048190;28;20450;-76
2022/11/08 09:57:04;;;;;;;4.80;3.03;;;24.10;1.00;;;;;;5040470;28;20848;-77
2022/11/08 09:59:33;;;;;;;5.03;2.93;;;24.40;1.00;;;;;;5050869;28;20442;-76
2022/11/08 10:01:58;;;;;;;5.10;3.20;;;24.90;1.00;;;;;;5047646;28;20449;-77
2022/11/08 10:04:28;;;;;;;4.10;2.70;;;25.50;1.00;;;;;;5041418;28;20450;-76
2022/11/08 10:07:18;;;;;;;6.90;2.87;;;26.60;1.00;;;;;;5043383;28;20184;-77
2022/11/08 10:10:11;;;;;;;5.43;3.37;;;28.00;1.00;;;;;;5045237;28;20466;-78
2022/11/08 10:13:03;;;;;;;19.03;4.70;;;29.10;1.00;;;;;;5047613;28;20523;-77
2022/11/08 10:15:55;;;;;;;7.07;3.17;;;29.10;1.00;;;;;;5046118;28;20173;-76
2022/11/08 10:18:24;;;;;;;131.87;17.03;;;29.40;1.00;;;;;;5035704;28;20272;-77
2022/11/08 10:20:55;;;;;;;4.40;2.80;;;29.00;1.00;;;;;;5037465;28;20252;-76
2022/11/08 10:23:28;;;;;;;5.17;2.83;;;28.30;1.00;;;;;;5044480;28;20196;-77
2022/11/08 10:25:59;;;;;;;6.67;3.00;;;27.60;1.00;;;;;;5050282;28;20632;-77
2022/11/08 10:28:35;;;;;;;5.97;3.10;;;27.30;1.00;;;;;;5043617;28;20187;-76
2022/11/08 10:31:02;;;;;;;45.73;7.70;;;27.30;1.00;;;;;;5038018;28;20249;-77
2022/11/08 10:33:49;;;;;;;4.60;3.00;;;27.90;1.00;;;;;;5047302;28;20189;-77
2022/11/08 10:36:39;;;;;;;7.13;3.50;;;27.60;1.00;;;;;;5048766;28;20181;-76
2022/11/08 10:39:10;;;;;;;5.97;3.40;;;28.40;1.00;;;;;;5043330;28;20191;-77
2022/11/08 10:42:00;;;;;;;5.67;3.70;;;28.00;1.00;;;;;;5045071;28;20644;-77
2022/11/08 10:44:27;;;;;;;8.60;3.63;;;27.30;1.00;;;;;;5045296;28;20575;-76
2022/11/08 10:46:56;;;;;;;9.10;3.70;;;27.30;1.00;;;;;;5046948;28;20185;-76
2022/11/08 10:49:30;;;;;;;7.83;3.97;;;27.20;1.00;;;;;;5052075;28;20211;-77
2022/11/08 10:52:11;;;;;;;5.87;3.80;;;26.00;1.00;;;;;;5048328;28;20435;-76
2022/11/08 10:54:51;;;;;;;8.60;4.00;;;25.60;1.00;;;;;;5043816;28;20455;-77
2022/11/08 10:57:30;;;;;;;7.10;4.90;;;26.70;1.00;;;;;;5046601;28;20434;-76
2022/11/08 11:00:13;;;;;;;6.60;4.43;;;27.50;1.00;;;;;;5033426;28;20435;-76
2022/11/08 11:02:39;;;;;;;7.67;4.77;;;29.10;1.00;;;;;;5043607;28;20653;-75
2022/11/08 11:05:17;;;;;;;7.57;4.20;;;30.40;1.00;;;;;;5044403;28;20200;-75
2022/11/08 11:08:08;;;;;;;7.40;3.50;;;30.40;1.00;;;;;;5038373;28;20176;-75
2022/11/08 11:10:35;;;;;;;5.30;3.42;;;30.60;1.00;;;;;;5041009;28;20223;-77
2022/11/08 11:13:10;;;;;;;4.80;3.00;;;31.10;1.00;;;;;;5043766;28;20258;-76
2022/11/08 11:15:49;;;;;;;4.68;3.22;;;31.50;1.00;;;;;;5048622;28;20246;-76
2022/11/08 11:18:26;;;;;;;5.32;3.20;;;31.90;1.00;;;;;;5042404;28;20207;-77
2022/11/08 11:21:09;;;;;;;5.18;3.28;;;32.60;1.00;;;;;;5048137;28;20176;-76
2022/11/08 11:23:43;;;;;;;4.70;2.97;;;33.60;1.00;;;;;;5037023;28;20188;-77
2022/11/08 11:26:33;;;;;;;6.20;2.95;;;33.50;1.00;;;;;;5046061;28;20231;-77
2022/11/08 11:29:08;;;;;;;4.97;2.80;;;33.20;1.00;;;;;;5044636;28;20828;-76
2022/11/08 11:31:39;;;;;;;4.82;2.95;;;33.10;1.00;;;;;;5044189;28;20184;-77
2022/11/08 11:34:21;;;;;;;4.80;2.90;;;33.40;1.00;;;;;;5041983;28;20193;-77
2022/11/08 11:37:07;;;;;;;5.30;2.97;;;33.80;1.00;;;;;;5046341;28;20204;-77
2022/11/08 11:39:48;;;;;;;4.57;2.60;;;34.70;1.00;;;;;;5039099;28;20560;-77
2022/11/08 11:42:41;;;;;;;7.45;3.10;;;34.70;1.00;;;;;;5046340;28;20268;-77
2022/11/08 11:45:09;;;;;;;4.10;2.40;;;34.30;1.00;;;;;;5044578;28;20199;-77
2022/11/08 11:47:49;;;;;;;4.30;2.50;;;33.60;1.00;;;;;;5046907;28;20250;-77
2022/11/08 11:50:37;;;;;;;4.72;2.47;;;32.50;1.00;;;;;;5047472;28;20257;-78
2022/11/08 11:53:09;;;;;;;4.93;4.15;;;33.00;1.00;;;;;;5042863;28;20203;-79
2022/11/08 11:56:13;;;;;;;5.55;3.20;;;33.60;1.00;;;;;;5051057;28;20664;-78
2022/11/08 11:59:00;;;;;;;5.10;2.80;;;32.40;1.00;;;;;;5050481;28;20273;-77
2022/11/08 12:01:44;;;;;;;8.05;3.60;;;31.80;1.00;;;;;;5046779;28;20234;-78
2022/11/08 12:04:40;;;;;;;4.03;2.88;;;30.50;1.00;;;;;;5042615;28;20284;-77
2022/11/08 12:07:11;;;;;;;4.15;2.88;;;30.10;1.00;;;;;;5049464;28;20192;-78
2022/11/08 12:09:56;;;;;;;9.38;3.50;;;29.90;1.00;;;;;;5049553;28;20192;-77
2022/11/08 12:12:56;;;;;;;7.80;4.50;;;26.40;1.00;;;;;;5047413;28;20184;-77
2022/11/08 12:15:31;;;;;;;5.57;2.93;;;26.10;1.00;;;;;;5041724;28;20173;-77
2022/11/08 12:18:00;;;;;;;8.43;3.20;;;24.40;1.00;;;;;;5036058;28;21104;-77
2022/11/08 12:20:52;;;;;;;4.87;2.90;;;22.90;1.00;;;;;;5042428;28;20795;-77
2022/11/08 12:23:35;;;;;;;9.83;3.77;;;22.10;1.00;;;;;;5040781;28;20965;-76
2022/11/08 12:26:10;;;;;;;5.40;3.40;;;21.30;1.00;;;;;;5036495;28;20746;-76
2022/11/08 12:28:42;;;;;;;4.50;2.80;;;21.00;1.00;;;;;;5042405;28;20903;-77
2022/11/08 12:31:25;;;;;;;9.20;4.17;;;20.40;1.00;;;;;;5040701;28;20431;-77
2022/11/08 12:34:03;;;;;;;8.50;5.10;;;20.20;1.00;;;;;;5041166;28;20909;-78
2022/11/08 12:36:44;;;;;;;5.60;2.90;;;19.90;1.00;;;;;;5042332;28;20431;-80
2022/11/08 12:39:21;;;;;;;6.67;3.73;;;19.60;1.00;;;;;;5043633;28;20422;-77
2022/11/08 12:42:04;;;;;;;7.90;2.77;;;19.40;1.00;;;;;;5039982;28;20438;-76
2022/11/08 12:44:47;;;;;;;16.43;4.10;;;19.50;1.00;;;;;;5039964;28;20451;-77
2022/11/08 12:47:44;;;;;;;7.53;4.60;;;19.60;1.00;;;;;;5035462;28;20447;-75
2022/11/08 12:50:21;;;;;;;9.97;7.87;;;19.60;1.00;;;;;;5045417;28;20554;-77
2022/11/08 12:53:22;;;;;;;5.73;3.23;;;19.60;1.00;;;;;;5048278;28;20453;-76
2022/11/08 12:55:53;;;;;;;8.87;3.63;;;19.50;1.00;;;;;;5047892;28;20415;-76
2022/11/08 12:58:42;;;;;;;5.90;3.27;;;19.30;1.00;;;;;;5045276;28;20461;-76
2022/11/08 13:01:14;;;;;;;4.57;2.93;;;19.20;1.00;;;;;;5042651;28;20474;-76
2022/11/08 13:03:45;;;;;;;4.80;3.10;;;19.10;1.00;;;;;;5047769;28;20439;-76
2022/11/08 13:06:13;;;;;;;5.40;3.30;;;19.10;1.00;;;;;;5043696;28;20439;-77
2022/11/08 13:09:24;;;;;;;7.47;3.10;;;19.00;1.00;;;;;;5043453;28;20849;-82
2022/11/08 13:12:40;;;;;;;6.67;3.70;;;18.90;1.00;;;;;;5065417;28;20450;-81
2022/11/08 13:15:16;;;;;;;4.70;2.90;;;18.80;1.00;;;;;;5039144;28;20496;-81
2022/11/08 13:18:21;;;;;;;10.23;3.57;;;18.70;1.00;;;;;;5046500;28;20436;-82
2022/11/08 13:20:48;;;;;;;8.20;3.50;;;18.60;1.00;;;;;;5061109;28;20450;-82
2022/11/08 13:23:28;;;;;;;6.67;3.93;;;18.60;1.00;;;;;;5061176;28;20806;-83
2022/11/08 13:26:10;;;;;;;4.60;3.30;;;18.50;1.00;;;;;;5059653;28;20435;-82
2022/11/08 13:28:39;;;;;;;6.40;3.90;;;18.50;1.00;;;;;;5058301;28;20451;-82
2022/11/08 13:31:16;;;;;;;9.60;3.47;;;18.40;1.00;;;;;;5058994;28;20431;-81
2022/11/08 13:34:10;;;;;;;11.63;3.70;;;18.40;1.00;;;;;;5052092;28;20432;-80
2022/11/08 13:36:38;;;;;;;5.57;3.67;;;18.30;1.00;;;;;;5054702;28;20492;-80